Leeuwarden Air Base

EHLW · Friesland, Holandia

Historia METAR EHLW · Leeuwarden Air Base

Poniżej widzisz METAR-y z ostatnich kilku dni. Wybierz rok, aby przeglądać starsze METAR-y, począwszy od roku 2007.

9 grudnia 2022

Czas Kod Pogoda Temp. Widoczność Sufit Wiatr METAR/SPECI
02:55
L
-4 °C 350 m - 180° 180° 5 kt METAR EHLW 090155Z AUTO 18005KT 130V190 0350 FZFG OVC000 M04/M04 Q1006 RED
02:25
L
-3 °C 400 m - 190° 190° 4 kt METAR EHLW 090125Z AUTO 19004KT 0400 FZFG OVC000 M03/M04 Q1006 RED
01:55
L
-3 °C 400 m - 170° 170° 5 kt METAR EHLW 090055Z AUTO 17005KT 140V200 0400 FZFG OVC000 M03/M03 Q1006 RED
01:25
L
-4 °C 300 m - 200° 200° 4 kt METAR EHLW 090025Z AUTO 20004KT 0300 FZFG OVC000 M04/M04 Q1006 RED
00:55
L
-3 °C 300 m - 210° 210° 3 kt METAR EHLW 082355Z AUTO 21003KT 0300 FZFG OVC000 M03/M04 Q1006 RED
00:25
L
-3 °C 200 m - 190° 190° 4 kt METAR EHLW 082325Z AUTO 19004KT 0200 FZFG OVC000 M03/M03 Q1006 RED

8 grudnia 2022

Czas Kod Pogoda Temp. Widoczność Sufit Wiatr METAR/SPECI
23:55
L
-3 °C 250 m - 190° 190° 5 kt METAR EHLW 082255Z AUTO 19005KT 0250 FZFG OVC000 M03/M03 Q1006 RED
23:25
L
-3 °C 300 m - 190° 190° 6 kt METAR EHLW 082225Z AUTO 19006KT 0300 FZFG OVC000 M03/M03 Q1006 RED
22:55
L
-3 °C 400 m - 180° 180° 4 kt METAR EHLW 082155Z AUTO 18004KT 100V180 0400 FZFG OVC000 M03/M03 Q1006 RED
22:42
M
-2 °C 5 km - 170° 170° 4 kt METAR EHLW 082142Z AUTO 17004KT 130V200 5000 BR SCT000 M02/M03 Q1006 RED
22:36
I
-2 °C 2,1 km - 170° 170° 3 kt METAR EHLW 082136Z AUTO 17003KT 150V210 2100 BR NCD M02/M03 Q1006 YLO
22:26
L
-3 °C 900 m - 190° 190° 2 kt METAR EHLW 082126Z AUTO 19002KT 0900 FZFG NCD M03/M03 Q1006 AMB
22:25
L
-3 °C 1 km - 200° 200° 2 kt METAR EHLW 082125Z AUTO 20002KT 1000 BR NCD M03/M03 Q1006 AMB
22:20
L
-2 °C 1,3 km - Var Var 2 kt METAR EHLW 082120Z AUTO VRB02KT 1300 BR NCD M02/M02 Q1006 AMB
22:15
I
-2 °C 4,2 km - 190° 190° 3 kt METAR EHLW 082115Z AUTO 19003KT 4200 BR NCD M02/M02 Q1006 GRN
22:04
M
-2 °C 7 km - 190° 190° 3 kt METAR EHLW 082104Z AUTO 19003KT 7000 BR NCD M02/M02 Q1006 WHT
21:55
V
-2 °C 8 km - 190° 190° 3 kt METAR EHLW 082055Z AUTO 19003KT 8000 BR NCD M02/M02 Q1006 BLU
21:35
M
-3 °C 6 km - 190° 190° 2 kt METAR EHLW 082035Z AUTO 19002KT 6000 BR NCD M03/M03 Q1006 WHT
21:26
I
-3 °C 4,6 km - 200° 200° 3 kt METAR EHLW 082026Z AUTO 20003KT 4600 BR FEW000 M03/M03 Q1006 GRN
21:25
I
-3 °C 2,4 km - 200° 200° 4 kt METAR EHLW 082025Z AUTO 20004KT 2400 BR FEW000 M03/M03 Q1006 YLO
21:17
I
-3 °C 2,1 km - 200° 200° 4 kt METAR EHLW 082017Z AUTO 20004KT 2100 BR BKN000 M03/M03 Q1006 RED
20:59
L
-3 °C 600 m - 190° 190° 3 kt METAR EHLW 081959Z AUTO 19003KT 0600 FZFG BKN000 M03/M03 Q1006 RED
20:55
L
-2 °C 900 m - 190° 190° 3 kt METAR EHLW 081955Z AUTO 19003KT 0900 FZFG SCT000 M02/M03 Q1006 RED
20:42
I
-2 °C 3,9 km - 190° 190° 2 kt METAR EHLW 081942Z AUTO 19002KT 3900 BR NCD M02/M03 Q1006 GRN
20:37
L
-3 °C 800 m - 190° 190° 2 kt METAR EHLW 081937Z AUTO 19002KT 0800 FZFG NCD M03/M03 Q1006 AMB
20:29
L
-3 °C 700 m - 210° 210° 1 kt METAR EHLW 081929Z AUTO 21001KT 0700 FZFG SCT000 M03/M03 Q1006 RED
20:25
L
-3 °C 800 m - 210° 210° 1 kt METAR EHLW 081925Z AUTO 21001KT 0800 FZFG FEW000 M03/M03 Q1006 AMB
20:15
L
-2 °C 900 m - 200° 200° 1 kt METAR EHLW 081915Z AUTO 20001KT 0900 FZFG NCD M02/M03 Q1006 AMB
20:05
L
-2 °C 700 m - 210° 210° 1 kt METAR EHLW 081905Z AUTO 21001KT 0700 FZFG FEW000 M02/M03 Q1006 RED
20:02
L
-3 °C 800 m - Var Var 1 kt METAR EHLW 081902Z AUTO VRB01KT 0800 FZFG NCD M03/M03 Q1006 AMB
19:55
L
-3 °C 550 m - 210° 210° 1 kt METAR EHLW 081855Z AUTO 21001KT 0550 FZFG SCT000 M03/M03 Q1006 RED
19:33
L
-2 °C 500 m - 210° 210° 1 kt METAR EHLW 081833Z AUTO 21001KT 0500 FZFG NCD M02/M02 Q1006 RED
19:25
I
-1 °C 4,8 km - 210° 210° 1 kt METAR EHLW 081825Z AUTO 21001KT 4800 BR NCD M01/M02 Q1006 GRN
19:17
I
-1 °C 3 km - 210° 210° 1 kt METAR EHLW 081817Z AUTO 21001KT 3000 BR NCD M01/M02 Q1006 YLO
19:15
L
-1 °C 1,4 km - 200° 200° 1 kt METAR EHLW 081815Z AUTO 20001KT 1400 BR NCD M01/M01 Q1006 AMB
18:59
M
0 °C 6 km - Var Var 2 kt METAR EHLW 081759Z AUTO VRB02KT 6000 BR NCD M00/M01 Q1006 WHT
18:55
V
-1 °C 10 km+ - 220° 220° 2 kt METAR EHLW 081755Z AUTO 22002KT 9999 NCD M01/M01 Q1006 BLU
18:25
V
0 °C 10 km+ - 230° 230° 3 kt METAR EHLW 081725Z AUTO 23003KT 9999 NCD M00/M01 Q1006 BLU
17:55
V
0 °C 10 km+ - 230° 230° 3 kt METAR EHLW 081655Z AUTO 23003KT 9999 NCD M00/M01 Q1006 BLU
17:25
V
0 °C 10 km+ - 230° 230° 3 kt METAR EHLW 081625Z AUTO 23003KT 9999 NCD 00/M00 Q1006 BLU
16:59
V
0 °C 10 km+ - Var 000° 0 kt METAR EHLW 081559Z AUTO 00000KT 9999 FEW020 00/M00 Q1006 BLU
16:55
V
0 °C 10 km+ - Var 000° 0 kt METAR EHLW 081555Z AUTO 00000KT 9999 SCT020 00/M00 Q1006 WHT
16:33
V
1 °C 10 km+ - Var 000° 0 kt METAR EHLW 081533Z AUTO 00000KT 9999 SCT020 01/00 Q1006 WHT
16:25
V
2 °C 10 km+ - 130° 130° 1 kt METAR EHLW 081525Z AUTO 13001KT 9999 SCT020 02/00 Q1006 WHT
16:05
V
2 °C 10 km+ - 040° 040° 1 kt METAR EHLW 081505Z AUTO 04001KT 9999 NCD 02/00 Q1005 BLU
15:55
V
2 °C 10 km+ - 030° 030° 2 kt METAR EHLW 081455Z AUTO 03002KT 9999 NCD 02/M00 Q1005 BLU TEMPO VRB02KT 4500 SHRASN SCT010 SCT015CB
15:32
V
3 °C 10 km+ 8.500 ft 020° 020° 2 kt METAR EHLW 081432Z AUTO 02002KT 9999 FEW022 OVC085 03/00 Q1005 BLU TEMPO VRB02KT 4500 SHRASN SCT010 SCT015CB
15:26
M
4 °C 10 km+ 2.900 ft 050° 050° 2 kt METAR EHLW 081426Z AUTO 05002KT 9999 SCT022 BKN029 BKN085 04/00 Q1005 WHT TEMPO VRB02KT 4500 SHRASN SCT010 SCT015CB
15:25
M
4 °C 10 km+ 2.700 ft 060° 060° 2 kt METAR EHLW 081425Z AUTO 06002KT 9999 FEW024 BKN027 BKN031 04/00 Q1005 BLU TEMPO VRB02KT 4500 SHRASN SCT010 SCT015CB
15:11
M
4 °C 10 km+ 2.400 ft Var Var 2 kt METAR EHLW 081411Z AUTO VRB02KT 9999 FEW014 BKN024 BKN033 04/01 Q1005 WHT TEMPO VRB02KT 4500 SHRASN SCT010 SCT015CB
14:55
V
4 °C 10 km+ 3.700 ft Var Var 1 kt METAR EHLW 081355Z AUTO VRB01KT 9999 FEW029 SCT032 OVC037 04/01 Q1005 BLU TEMPO VRB02KT 4500 SHRASN SCT010 SCT015CB
14:25
V
4 °C 10 km+ 5.300 ft Var Var 1 kt METAR EHLW 081325Z AUTO VRB01KT 9999 FEW026 BKN053 OVC059 04/01 Q1005 BLU TEMPO VRB02KT 4500 SHRASN SCT010 SCT015CB
13:55
V
4 °C 10 km+ 4.400 ft 260° 260° 5 kt METAR EHLW 081255Z AUTO 26005KT 240V340 9999 FEW027 SCT031 OVC044 04/00 Q1006 REDZ BLU TEMPO VRB02KT 4500 SHRASN SCT010 SCT015CB
13:39
V
4 °C 10 km+ 3.800 ft Var Var 2 kt METAR EHLW 081239Z AUTO VRB02KT 9999 FEW020 SCT031 BKN038 04/01 Q1006 BLU TEMPO VRB02KT 4500 SHRASN SCT010 SCT015CB
13:27
V
3 °C 10 km+ 3.200 ft 240° 240° 3 kt METAR EHLW 081227Z AUTO 24003KT 200V260 9999 DZRA FEW029 BKN032 OVC037 03/01 Q1006 BLU TEMPO VRB02KT 4500 SHRASN SCT010 SCT015CB
13:25
V
3 °C 10 km+ 3.500 ft 220° 220° 3 kt METAR EHLW 081225Z AUTO 22003KT 9999 DZ SCT031 BKN035 OVC046 03/01 Q1006 BLU TEMPO VRB02KT 4500 SHRASN SCT010 SCT015CB
12:55
V
3 °C 10 km+ 6.100 ft 020° 020° 3 kt METAR EHLW 081155Z AUTO 02003KT 290V040 9999 FEW044 SCT049 BKN061 03/01 Q1005 BLU TEMPO VRB02KT 4500 SHRASN SCT010 SCT015CB
12:39
M
3 °C 10 km+ 2.000 ft 310° 310° 7 kt METAR EHLW 081139Z AUTO 31007KT 190V340 9999 -SHRA SCT016 OVC020 03/01 Q1006 WHT TEMPO VRB02KT 4500 SHRASN SCT010 SCT015CB
12:29
M
4 °C 10 km+ 2.500 ft 330° 330° 5 kt METAR EHLW 081129Z AUTO 33005KT 9999 -RA FEW016 SCT022 BKN025 04/01 Q1006 WHT TEMPO VRB02KT 4500 SHRASN SCT010 SCT015CB
12:25
M
4 °C 10 km+ 2.500 ft 030° 030° 3 kt METAR EHLW 081125Z AUTO 03003KT 9999 -RA FEW017 BKN025 OVC028 04/01 Q1006 BLU TEMPO VRB02KT 4500 SHRASN SCT010 SCT015CB
12:13
M
4 °C 10 km+ 2.700 ft 060° 060° 4 kt METAR EHLW 081113Z AUTO 06004KT 050V130 9999 -RA FEW018 BKN027 BKN032 04/01 Q1006 BLU TEMPO VRB02KT 4500 SHRASN SCT010 SCT015CB
12:09
M
4 °C 10 km+ 2.200 ft 010° 010° 3 kt METAR EHLW 081109Z AUTO 01003KT 010V120 9999 -DZRA FEW018 BKN022 BKN025 04/01 Q1006 WHT TEMPO VRB02KT 4500 SHRASN SCT010 SCT015CB
12:03
M
4 °C 10 km+ 2.500 ft 340° 340° 3 kt METAR EHLW 081103Z AUTO 34003KT 010V120 9999 -DZ SCT021 BKN025 BKN030 04/01 Q1006 WHT TEMPO VRB02KT 4500 SHRASN SCT010 SCT015CB
11:59
M
5 °C 10 km+ 2.400 ft 310° 310° 3 kt METAR EHLW 081059Z AUTO 31003KT 320V070 9999 -DZ BKN024 OVC028 05/01 Q1006 WHT TEMPO 4500 SHRASN SCT010 SCT015CB
11:55
M
5 °C 10 km+ 2.600 ft 310° 310° 3 kt METAR EHLW 081055Z AUTO 31003KT 230V030 9999 FEW022 BKN026 OVC029 05/01 Q1006 BLU TEMPO 4500 SHRASN SCT010 SCT015CB
11:25
V
3 °C 10 km+ - Var Var 2 kt METAR EHLW 081025Z AUTO VRB02KT 9999 FEW059 03/01 Q1006 BLU TEMPO 4500 SHRASN SCT010 SCT015CB
10:55
V
3 °C 10 km+ - 210° 210° 5 kt METAR EHLW 080955Z AUTO 21005KT 9999 NCD 03/01 Q1006 BLU TEMPO 4500 SHRASN SCT010 SCT015CB
10:25
V
1 °C 10 km+ - 220° 220° 4 kt METAR EHLW 080925Z AUTO 22004KT 9999 NCD 01/M00 Q1006 BLU TEMPO 4500 SHRASN SCT010 SCT015CB
09:55
V
1 °C 10 km+ 4.700 ft 240° 240° 5 kt METAR EHLW 080855Z AUTO 24005KT 150V240 9999 DZ FEW029 SCT037 BKN047 01/M01 Q1006 BLU TEMPO 4500 SHRASN SCT010 SCT015CB
09:25
V
0 °C 10 km+ 4.500 ft 230° 230° 4 kt METAR EHLW 080825Z AUTO 23004KT 9999 SCT040 BKN045 00/M01 Q1006 BLU TEMPO 4500 SHRASN SCT010 SCT015CB
09:00
V
0 °C 10 km+ - 230° 230° 5 kt METAR EHLW 080800Z AUTO 23005KT 9999 SCT046 SCT053 M00/M01 Q1006 BLU TEMPO 4500 SHRASN SCT010 SCT015CB
08:55
V
0 °C 10 km+ - 230° 230° 4 kt METAR EHLW 080755Z AUTO 23004KT 9999 FEW055 M00/M01 Q1006 BLU NOSIG
08:38
V
-1 °C 10 km+ - 240° 240° 5 kt METAR EHLW 080738Z AUTO 24005KT 9999 NCD M01/M02 Q1006 BLU NOSIG
08:25
V
0 °C 10 km+ - 260° 260° 4 kt METAR EHLW 080725Z AUTO 26004KT 9999 NCD 00/M02 Q1006 BLU NOSIG
07:55
V
2 °C 10 km+ - 290° 290° 4 kt METAR EHLW 080655Z AUTO 29004KT 9999 NCD 02/M01 Q1005 BLU NOSIG
07:47
V
2 °C 10 km+ - 280° 280° 4 kt SPECI EHLW 080647Z AUTO 28004KT 9999 NCD 02/M01 Q1005 BLU NOSIG
07:36
V
2 °C 10 km+ - 270° 270° 4 kt METAR EHLW 080636Z AUTO 27004KT 9999 NCD 02/M00 Q1005 BLU TEMPO 32010G25KT 2000 SHRASN SHRAGS FEW005 SCT010 SCT015CB
07:25
V
2 °C 10 km+ 14.000 ft 280° 280° 3 kt METAR EHLW 080625Z AUTO 28003KT 220V290 9999 OVC140 02/00 Q1005 BLU
06:55
V
2 °C 10 km+ 5.900 ft 340° 340° 5 kt METAR EHLW 080555Z AUTO 34005KT 9999 FEW015CB BKN059 OVC110 02/01 Q1006 BLU
06:33
V
3 °C 10 km+ 4.500 ft 340° 340° 12 kt METAR EHLW 080533Z AUTO 34012KT 290V010 9999 FEW017 SCT034 BKN045 03/01 Q1006 BLU
06:29
V
3 °C 10 km+ 3.300 ft 310° 310° 9 kt METAR EHLW 080529Z AUTO 31009KT 230V360 9999 FEW017 SCT024 BKN033 03/01 Q1006 WHT
06:25
V
2 °C 10 km+ 6.500 ft 280° 280° 5 - 18 kt METAR EHLW 080525Z AUTO 28005G18KT 230V340 9999 FEW023 SCT032 BKN065 02/01 Q1006 BLU
05:55
V
2 °C 10 km+ 4.400 ft 010° 010° 3 kt METAR EHLW 080455Z AUTO 01003KT 230V040 9999 SCT040 BKN044 BKN050 02/01 Q1006 BLU
05:25
V
1 °C 10 km+ 7.400 ft Var Var 3 kt METAR EHLW 080425Z AUTO VRB03KT 9999 FEW015CB SCT067 OVC074 01/00 Q1006 BLU
04:55
V
1 °C 10 km+ 7.600 ft 230° 230° 5 kt METAR EHLW 080355Z AUTO 23005KT 9999 SCT069 BKN076 OVC100 01/01 Q1006 BLU
04:25
V
2 °C 10 km+ 11.000 ft 270° 270° 5 kt METAR EHLW 080325Z AUTO 27005KT 240V300 9999 SCT067 SCT075 OVC110 02/01 Q1006 BLU
04:09
V
2 °C 10 km+ 10.000 ft 280° 280° 5 kt METAR EHLW 080309Z AUTO 28005KT 240V300 9999 FEW077 OVC100 02/01 Q1006 BLU
03:55
V
3 °C 10 km+ 8.500 ft 310° 310° 7 kt METAR EHLW 080255Z AUTO 31007KT 270V330 9999 FEW015CB SCT043 BKN085 03/02 Q1007 RERASN BLU
03:43
M
2 °C 10 km+ 2.200 ft 330° 330° 10 kt METAR EHLW 080243Z AUTO 33010KT 270V350 9999 -RA FEW014 FEW015CB SCT017 BKN022 02/01 Q1007 WHT
03:38
M
2 °C 7 km 1.400 ft 320° 320° 12 kt METAR EHLW 080238Z AUTO 32012KT 270V350 7000 SHRASN FEW005 BKN014 SCT015CB OVC017 02/01 Q1007 GRN
03:36
I
2 °C 2,4 km 1.200 ft 310° 310° 14 kt METAR EHLW 080236Z AUTO 31014KT 260V340 2400 RASN FEW005 BKN012 BKN014 SCT015CB 02/01 Q1007 YLO
03:26
I
2 °C 3 km 1.500 ft 300° 300° 13 kt METAR EHLW 080226Z AUTO 30013KT 250V310 3000 SHRA FEW007 SCT012 BKN015CB 02/01 Q1007 YLO
03:25
I
3 °C 3,4 km 1.600 ft 290° 290° 10 kt METAR EHLW 080225Z AUTO 29010KT 250V320 3400 SHRA FEW012 FEW015CB BKN016 OVC019 03/01 Q1007 REDZ YLO
03:20
I
4 °C 3,4 km 1.900 ft 300° 300° 8 kt METAR EHLW 080220Z AUTO 30008KT 250V320 3400 RADZ FEW015CB SCT016 OVC019 04/02 Q1007 YLO
03:10
M
3 °C 10 km+ 2.700 ft 280° 280° 7 kt METAR EHLW 080210Z AUTO 28007KT 230V310 9999 -RA FEW015CB SCT023 BKN027 03/02 Q1007 WHT
02:55
V
3 °C 10 km+ 4.400 ft 260° 260° 10 kt METAR EHLW 080155Z AUTO 26010KT 9999 DZ FEW015CB SCT037 BKN044 03/02 Q1007 BLU
02:25
V
3 °C 10 km+ 8.400 ft 260° 260° 7 kt METAR EHLW 080125Z AUTO 26007KT 9999 FEW015CB SCT055 BKN084 03/01 Q1007 RERA BLU
02:12
V
3 °C 10 km+ 3.100 ft 270° 270° 8 kt METAR EHLW 080112Z AUTO 27008KT 240V320 9999 -RA FEW015CB SCT027 BKN031 03/02 Q1007 BLU
01:55
M
3 °C 5 km 3.000 ft 290° 290° 7 - 18 kt METAR EHLW 080055Z AUTO 29007G18KT 250V320 5000 RA FEW015CB SCT018 BKN030 03/02 Q1007 WHT
01:36
M
3 °C 10 km+ 2.400 ft 290° 290° 6 kt METAR EHLW 080036Z AUTO 29006KT 230V320 9999 FEW012/// FEW015CB SCT017/// OVC024 03/02 Q1007 WHT
01:31
M
3 °C 10 km+ 1.500 ft 270° 270° 6 kt METAR EHLW 080031Z AUTO 27006KT 220V320 9999 -RA SCT012 BKN015CB BKN020 03/02 Q1008 GRN
01:25
M
3 °C 10 km+ 2.100 ft 260° 260° 6 kt METAR EHLW 080025Z AUTO 26006KT 220V280 9999 -RA SCT015CB BKN021 BKN025 03/02 Q1008 RERA WHT
01:16
M
3 °C 10 km+ 1.500 ft 260° 260° 6 kt METAR EHLW 080016Z AUTO 26006KT 250V320 9999 RA FEW012 BKN015CB BKN019 03/02 Q1008 WHT
01:11
M
3 °C 10 km+ 1.500 ft 280° 280° 6 kt METAR EHLW 080011Z AUTO 28006KT 260V350 9999 FEW013 BKN015CB BKN019 03/02 Q1008 WHT
01:00
M
3 °C 10 km+ 1.500 ft 310° 310° 9 kt METAR EHLW 080000Z AUTO 31009KT 270V360 9999 SHRA FEW011 BKN015CB BKN018 03/02 Q1008 WHT
00:58
I
3 °C 3,8 km 1.500 ft 310° 310° 9 kt METAR EHLW 072358Z AUTO 31009KT 280V360 3800 SHRA FEW011 BKN015CB OVC019 03/02 Q1008 GRN
00:55
M
4 °C 10 km+ 1.500 ft 310° 310° 7 kt METAR EHLW 072355Z AUTO 31007KT 270V030 9999 -RA SCT011 BKN015CB 04/02 Q1008 GRN
00:44
M
4 °C 10 km+ 1.600 ft 290° 290° 8 kt METAR EHLW 072344Z AUTO 29008KT 280V350 9999 FEW011 SCT014 FEW015CB BKN016 04/02 Q1008 GRN
00:28
M
4 °C 10 km+ 2.700 ft 260° 260° 9 kt METAR EHLW 072328Z AUTO 26009KT 210V320 9999 -DZ FEW015CB SCT024 BKN027 04/02 Q1008 WHT
00:25
V
3 °C 10 km+ 3.200 ft 240° 240° 7 kt METAR EHLW 072325Z AUTO 24007KT 190V250 9999 FEW015CB BKN032 BKN042 03/01 Q1008 BLU

7 grudnia 2022

Czas Kod Pogoda Temp. Widoczność Sufit Wiatr METAR/SPECI
23:55
V
3 °C 10 km+ 10.000 ft 250° 250° 7 kt METAR EHLW 072255Z AUTO 25007KT 9999 OVC100 03/01 Q1008 BLU
23:25
V
3 °C 10 km+ 13.000 ft 250° 250° 7 kt METAR EHLW 072225Z AUTO 25007KT 9999 FEW083 OVC130 03/01 Q1009 BLU
23:09
V
4 °C 10 km+ 5.200 ft 260° 260° 8 kt METAR EHLW 072209Z AUTO 26008KT 9999 FEW019 BKN052 OVC130 04/01 Q1009 BLU
22:55
V
4 °C 10 km+ 3.600 ft 270° 270° 7 kt METAR EHLW 072155Z AUTO 27007KT 9999 SCT019 BKN036 OVC066 04/01 Q1009 WHT
22:25
V
4 °C 10 km+ 13.000 ft 280° 280° 8 kt METAR EHLW 072125Z AUTO 28008KT 250V310 9999 FEW015CB OVC130 04/02 Q1009 BLU
22:09
V
4 °C 10 km+ 10.000 ft 260° 260° 9 kt METAR EHLW 072109Z AUTO 26009KT 9999 FEW015CB OVC100 04/02 Q1009 BLU
21:55
M
4 °C 10 km+ 2.800 ft 260° 260° 9 kt METAR EHLW 072055Z AUTO 26009KT 9999 FEW015CB BKN028 OVC032 04/02 Q1009 REDZ BLU
21:47
V
4 °C 10 km+ 4.100 ft 260° 260° 10 kt SPECI EHLW 072047Z AUTO 26010KT 9999 +DZ FEW015CB SCT029 OVC041 04/02 Q1010 BLU
21:42
M
3 °C 6 km 4.200 ft 260° 260° 9 kt METAR EHLW 072042Z AUTO 26009KT 6000 +DZ FEW015CB SCT037 BKN042 03/02 Q1010 WHT
21:25
V
3 °C 10 km+ 9.000 ft 260° 260° 7 kt METAR EHLW 072025Z AUTO 26007KT 9999 BKN090 OVC095 03/01 Q1010 BLU
20:55
V
3 °C 10 km+ 7.700 ft 270° 270° 6 kt METAR EHLW 071955Z AUTO 27006KT 9999 FEW015CB BKN077 OVC086 03/01 Q1010 BLU
20:39
V
3 °C 10 km+ 5.200 ft 270° 270° 8 kt METAR EHLW 071939Z AUTO 27008KT 9999 FEW015CB SCT042 BKN052 03/02 Q1010 BLU
20:26
V
3 °C 10 km+ 4.800 ft 300° 300° 5 kt METAR EHLW 071926Z AUTO 30005KT 210V300 9999 FEW015CB SCT025 BKN048 03/02 Q1011 BLU
20:25
M
4 °C 10 km+ 2.100 ft 310° 310° 6 kt METAR EHLW 071925Z AUTO 31006KT 200V350 9999 -RA FEW012 FEW015CB BKN021 BKN047 04/02 Q1011 RERA WHT
20:14
M
4 °C 5 km 2.000 ft Var Var 6 kt METAR EHLW 071914Z AUTO VRB06KT 5000 RA FEW006 FEW015CB SCT016 BKN020 04/02 Q1011 WHT
20:07
V
3 °C 10 km+ 3.200 ft Var Var 1 kt METAR EHLW 071907Z AUTO VRB01KT 9999 -RA FEW015CB SCT023 BKN032 03/02 Q1011 WHT
19:55
V
3 °C 10 km+ 7.600 ft 070° 070° 3 kt METAR EHLW 071855Z AUTO 07003KT 080V200 9999 FEW015CB SCT031 BKN076 03/02 Q1011 BLU
19:25
V
2 °C 10 km+ 10.000 ft 210° 210° 4 kt METAR EHLW 071825Z AUTO 21004KT 150V210 9999 FEW015CB SCT046 OVC100 02/01 Q1011 REDZ BLU
18:55
V
2 °C 10 km+ 10.000 ft Var 000° 0 kt METAR EHLW 071755Z AUTO 00000KT 9999 FEW038 OVC100 02/01 Q1011 BLU
18:25
V
3 °C 10 km+ 3.300 ft 360° 360° 5 kt METAR EHLW 071725Z AUTO 36005KT 320V050 9999 FEW015CB BKN033 OVC100 03/02 Q1012 BLU
17:59
M
4 °C 10 km+ 2.300 ft 310° 310° 12 kt METAR EHLW 071659Z AUTO 31012KT 270V010 9999 FEW014 FEW015CB SCT020 BKN023 04/02 Q1012 WHT
17:55
V
4 °C 10 km+ 3.100 ft 280° 280° 10 kt METAR EHLW 071655Z AUTO 28010KT 280V040 9999 FEW015CB SCT025 BKN031 04/01 Q1012 BLU
17:25
V
3 °C 10 km+ 8.300 ft 240° 240° 7 kt METAR EHLW 071625Z AUTO 24007KT 9999 SCT071 BKN083 OVC090 03/01 Q1012 BLU
16:55
V
3 °C 10 km+ 9.700 ft 250° 250° 4 kt METAR EHLW 071555Z AUTO 25004KT 9999 FEW015CB BKN097 OVC100 03/01 Q1012 BLU
16:29
V
4 °C 10 km+ 4.000 ft 310° 310° 7 kt METAR EHLW 071529Z AUTO 31007KT 260V010 9999 -RA FEW015CB SCT027 BKN040 04/02 Q1013 BLU
16:25
M
4 °C 10 km+ 2.600 ft 320° 320° 9 kt METAR EHLW 071525Z AUTO 32009KT 280V010 9999 -RA FEW016 SCT023 BKN026 04/02 Q1013 RERA WHT
16:20
M
4 °C 10 km+ 2.400 ft 330° 330° 10 kt METAR EHLW 071520Z AUTO 33010KT 280V010 9999 RA FEW017 OVC024 04/02 Q1013 WHT
15:56
M
3 °C 10 km+ 2.700 ft 320° 320° 4 kt METAR EHLW 071456Z AUTO 32004KT 260V050 9999 FEW017 SCT023 BKN027 03/02 Q1013 WHT
15:55
V
4 °C 10 km+ 3.100 ft 280° 280° 4 kt METAR EHLW 071455Z AUTO 28004KT 260V050 9999 FEW019 SCT027 BKN031 04/02 Q1013 BLU
15:25
V
4 °C 10 km+ 8.500 ft 250° 250° 6 kt METAR EHLW 071425Z AUTO 25006KT 9999 SCT079 BKN085 OVC100 04/01 Q1013 BLU
15:12
V
4 °C 10 km+ 7.600 ft 260° 260° 6 kt METAR EHLW 071412Z AUTO 26006KT 9999 FEW015CB BKN076 BKN092 BKN105 04/01 Q1013 BLU
14:55
V
4 °C 10 km+ 6.500 ft 300° 300° 7 kt METAR EHLW 071355Z AUTO 30007KT 270V360 9999 FEW015CB SCT042 BKN065 04/02 Q1013 BLU TEMPO 35016G30KT SCT020CB
14:25
V
5 °C 10 km+ 5.500 ft 290° 290° 7 kt METAR EHLW 071325Z AUTO 29007KT 260V330 9999 FEW046 BKN055 BKN077 05/02 Q1013 REDZ BLU TEMPO 35016G30KT SCT020CB
14:10
V
5 °C 10 km+ 4.400 ft 280° 280° 7 kt METAR EHLW 071310Z AUTO 28007KT 250V310 9999 FEW020 SCT026 BKN044 05/02 Q1013 BLU TEMPO 35016G30KT SCT020CB
14:02
V
5 °C 10 km+ 3.400 ft 290° 290° 11 kt METAR EHLW 071302Z AUTO 29011KT 250V310 9999 -RA FEW020 SCT023 BKN034 05/02 Q1013 WHT TEMPO 35016G30KT SCT020CB
14:01
V
5 °C 10 km+ 3.800 ft 290° 290° 12 kt SPECI EHLW 071301Z AUTO 29012KT 9999 DZRA FEW020 SCT033 BKN038 05/02 Q1014 BLU TEMPO 35016G30KT SCT020CB
13:55
V
5 °C 10 km+ 4.400 ft 300° 300° 11 kt METAR EHLW 071255Z AUTO 30011KT 260V330 9999 -DZ FEW020 SCT034 BKN044 05/02 Q1014 BLU TEMPO 35016G30KT SCT020CB
13:29
M
5 °C 10 km+ 2.800 ft 310° 310° 8 kt METAR EHLW 071229Z AUTO 31008KT 9999 FEW018 SCT025 BKN028 05/03 Q1014 BLU TEMPO 35016G30KT SCT020CB
13:25
M
5 °C 10 km+ 2.700 ft 320° 320° 9 kt METAR EHLW 071225Z AUTO 32009KT 280V350 9999 SCT023 BKN027 OVC031 05/03 Q1014 WHT TEMPO 35016G30KT SCT020CB
13:14
V
5 °C 10 km+ 3.100 ft 330° 330° 8 kt METAR EHLW 071214Z AUTO 33008KT 280V020 9999 -UP SCT024 OVC031 05/03 Q1014 WHT TEMPO 35016G30KT SCT020CB
12:59
V
5 °C 10 km+ 3.500 ft 340° 340° 10 kt METAR EHLW 071159Z AUTO 34010KT 290V010 9999 FEW015CB SCT027 BKN035 05/03 Q1014 BLU TEMPO 35016G30KT SCT020CB
12:55
M
5 °C 10 km+ 2.700 ft 350° 350° 10 kt METAR EHLW 071155Z AUTO 35010KT 300V010 9999 FEW015CB SCT023 BKN027 05/03 Q1014 REDZ WHT TEMPO 35016G30KT SCT020CB
12:42
V
5 °C 10 km+ 4.500 ft 350° 350° 12 kt METAR EHLW 071142Z AUTO 35012KT 310V010 9999 FEW015CB SCT036 BKN045 05/03 Q1014 BLU TEMPO 35016G30KT SCT020CB
12:35
M
5 °C 10 km+ 2.900 ft 340° 340° 14 kt METAR EHLW 071135Z AUTO 34014KT 300V020 9999 FEW013 FEW015CB SCT017 BKN029 05/03 Q1014 WHT TEMPO 35016G30KT SCT020CB
12:29
M
5 °C 10 km+ 2.600 ft 300° 300° 9 kt METAR EHLW 071129Z AUTO 30009KT 250V010 9999 +DZRA FEW015CB SCT022 BKN026 05/03 Q1014 WHT TEMPO 35016G30KT SCT020CB
12:25
V
6 °C 10 km+ 3.200 ft 280° 280° 7 kt METAR EHLW 071125Z AUTO 28007KT 240V320 9999 DZ FEW024 SCT029 BKN032 06/03 Q1014 BLU TEMPO 35016G30KT SCT020CB
11:58
V
5 °C 10 km+ 11.000 ft 280° 280° 5 kt METAR EHLW 071058Z AUTO 28005KT 250V310 9999 FEW071 OVC110 05/02 Q1015 BLU TEMPO 35016G30KT SCT020CB
11:55
V
5 °C 10 km+ 6.800 ft 280° 280° 6 kt METAR EHLW 071055Z AUTO 28006KT 250V310 9999 SCT029 BKN068 OVC110 05/02 Q1015 REDZ BLU TEMPO 35016G30KT SCT020CB
11:31
V
5 °C 10 km+ 4.100 ft 350° 350° 9 kt METAR EHLW 071031Z AUTO 35009KT 310V020 9999 FEW030 SCT034 BKN041 05/02 Q1015 BLU TEMPO 35016G30KT SCT020CB
11:25
V
5 °C 10 km+ 4.200 ft 350° 350° 14 kt METAR EHLW 071025Z AUTO 35014KT 320V020 9999 FEW021 SCT034 BKN042 05/02 Q1015 BLU TEMPO 33013G23KT SCT020CB
10:55
V
6 °C 10 km+ 13.000 ft 330° 330° 9 kt METAR EHLW 070955Z AUTO 33009KT 290V010 9999 OVC130 06/02 Q1015 BLU TEMPO 33013G23KT SCT020CB
10:34
V
5 °C 10 km+ 18.000 ft 350° 350° 9 kt METAR EHLW 070934Z AUTO 35009KT 300V010 9999 FEW022 SCT025 BKN180 05/02 Q1015 BLU TEMPO 33013G23KT SCT020CB
10:29
V
5 °C 10 km+ 3.100 ft 330° 330° 10 kt METAR EHLW 070929Z AUTO 33010KT 300V010 9999 SCT024 SCT027 BKN031 05/03 Q1015 WHT TEMPO 33013G23KT SCT020CB
10:25
V
5 °C 10 km+ - 320° 320° 9 kt METAR EHLW 070925Z AUTO 32009KT 280V010 9999 FEW026 SCT031 05/03 Q1015 BLU TEMPO 33013G23KT SCT020CB
09:55
V
4 °C 10 km+ 5.800 ft 310° 310° 8 kt METAR EHLW 070855Z AUTO 31008KT 9999 FEW032 SCT043 BKN058 04/02 Q1015 BLU TEMPO 33013G23KT SCT020CB
09:26
V
4 °C 10 km+ 3.200 ft 320° 320° 9 kt SPECI EHLW 070826Z AUTO 32009KT 270V340 9999 -RA FEW007 SCT027 BKN032 04/02 Q1015 BLU TEMPO 33013G23KT SCT020CB
09:25
M
4 °C 10 km+ 2.700 ft 330° 330° 13 - 25 kt METAR EHLW 070825Z AUTO 33013G25KT 270V340 9999 -RA FEW007 SCT022 BKN027 04/02 Q1015 WHT TEMPO 33013G23KT SCT020CB
09:18
V
4 °C 10 km+ 3.300 ft 320° 320° 18 - 28 kt METAR EHLW 070818Z AUTO 32018G28KT 280V350 9999 RA FEW020 BKN033 OVC039 04/02 Q1015 BLU TEMPO 33013G23KT SCT020CB
09:13
V
4 °C 10 km+ 3.900 ft 320° 320° 16 - 28 kt METAR EHLW 070813Z AUTO 32016G28KT 280V360 9999 -RA FEW027 SCT033 BKN039 04/02 Q1015 BLU TEMPO 33013G23KT SCT020CB
08:55
V
3 °C 10 km+ - 340° 340° 7 kt METAR EHLW 070755Z AUTO 34007KT 310V020 9999 NCD 03/02 Q1015 BLU TEMPO SCT020CB
08:25
V
4 °C 10 km+ 5.600 ft 310° 310° 10 kt METAR EHLW 070725Z AUTO 31010KT 9999 SCT036 BKN056 OVC062 04/01 Q1015 BLU TEMPO SCT020CB
07:59
V
4 °C 10 km+ 3.800 ft 340° 340° 9 kt METAR EHLW 070659Z AUTO 34009KT 310V010 9999 FEW028 SCT034 BKN038 04/02 Q1015 BLU TEMPO SCT020CB
07:55
V
4 °C 10 km+ 5.000 ft 340° 340° 11 kt METAR EHLW 070655Z AUTO 34011KT 9999 FEW015CB BKN050 04/01 Q1015 BLU TEMPO SCT020CB
07:29
V
3 °C 10 km+ - 310° 310° 8 kt METAR EHLW 070629Z AUTO 31008KT 270V360 9999 FEW021 SCT063 03/01 Q1015 BLU TEMPO SCT020CB
07:25
V
3 °C 10 km+ - 310° 310° 8 kt METAR EHLW 070625Z AUTO 31008KT 280V340 9999 FEW063 03/01 Q1015 BLU
07:03
V
4 °C 10 km+ - 320° 320° 8 kt METAR EHLW 070603Z AUTO 32008KT 9999 FEW027 04/02 Q1015 BLU
06:57
V
4 °C 10 km+ - 320° 320° 9 kt METAR EHLW 070557Z AUTO 32009KT 290V360 9999 FEW020 SCT024 04/02 Q1015 WHT
06:55
M
4 °C 10 km+ 2.500 ft 320° 320° 9 kt METAR EHLW 070555Z AUTO 32009KT 270V360 9999 -DZ FEW019 BKN025 BKN031 04/02 Q1015 BLU
06:25
V
4 °C 10 km+ 5.300 ft 330° 330° 11 kt METAR EHLW 070525Z AUTO 33011KT 300V360 9999 FEW015CB SCT029 BKN053 04/02 Q1015 BLU
06:05
V
5 °C 10 km+ 3.600 ft 310° 310° 13 kt METAR EHLW 070505Z AUTO 31013KT 270V340 9999 -RA FEW015CB SCT028 BKN036 05/02 Q1015 BLU
05:56
V
5 °C 10 km+ 3.200 ft 310° 310° 12 kt METAR EHLW 070456Z AUTO 31012KT 270V340 9999 -SHRA FEW015CB BKN032 OVC036 05/03 Q1015 BLU
05:55
V
4 °C 10 km+ 3.200 ft 310° 310° 9 kt METAR EHLW 070455Z AUTO 31009KT 270V350 9999 -RA FEW015CB BKN032 BKN037 04/02 Q1015 RERA REDZ BLU
05:25
V
4 °C 10 km+ 17.000 ft 320° 320° 9 kt METAR EHLW 070425Z AUTO 32009KT 9999 OVC170 04/01 Q1015 BLU
04:55
V
5 °C 10 km+ 18.000 ft 340° 340° 13 kt METAR EHLW 070355Z AUTO 34013KT 300V010 9999 FEW033 SCT045 OVC180 05/02 Q1015 BLU
04:42
V
5 °C 10 km+ 5.100 ft 330° 330° 13 kt METAR EHLW 070342Z AUTO 33013KT 290V010 9999 SCT021 BKN051 BKN060 05/01 Q1015 WHT
04:25
V
4 °C 10 km+ 6.900 ft 330° 330° 12 kt METAR EHLW 070325Z AUTO 33012KT 290V360 9999 FEW048 SCT062 BKN069 04/02 Q1015 BLU
03:55
V
5 °C 10 km+ 6.800 ft 330° 330° 10 kt METAR EHLW 070255Z AUTO 33010KT 300V360 9999 SCT061 OVC068 05/01 Q1015 BLU
03:25
V
5 °C 10 km+ 3.500 ft 300° 300° 11 kt METAR EHLW 070225Z AUTO 30011KT 260V010 9999 FEW020 SCT030 BKN035 05/02 Q1015 BLU
02:55
V
5 °C 10 km+ 3.600 ft 290° 290° 9 kt METAR EHLW 070155Z AUTO 29009KT 250V310 9999 -DZ FEW015CB SCT027 BKN036 05/03 Q1016 BLU
02:25
V
4 °C 10 km+ - 340° 340° 10 kt METAR EHLW 070125Z AUTO 34010KT 280V010 9999 FEW029 SCT049 04/03 Q1016 REUP BLU
02:10
M
5 °C 10 km+ 2.900 ft 320° 320° 9 - 19 kt METAR EHLW 070110Z AUTO 32009G19KT 280V010 9999 UP FEW017 SCT020 BKN029 05/02 Q1016 WHT
01:55
V
4 °C 10 km+ - 320° 320° 7 kt METAR EHLW 070055Z AUTO 32007KT 280V350 9999 FEW062 SCT068 04/01 Q1016 REDZ BLU
01:25
V
5 °C 10 km+ 3.500 ft 310° 310° 9 kt METAR EHLW 070025Z AUTO 31009KT 240V020 9999 -RA FEW023 SCT030 BKN035 05/03 Q1016 BLU
00:55
V
3 °C 10 km+ - 310° 310° 4 kt METAR EHLW 062355Z AUTO 31004KT 270V340 9999 FEW015CB 03/01 Q1016 BLU
00:37
V
4 °C 10 km+ - 320° 320° 8 kt METAR EHLW 062337Z AUTO 32008KT 290V010 9999 FEW015CB SCT024 04/02 Q1016 WHT
00:25
V
5 °C 10 km+ 6.300 ft 320° 320° 8 kt METAR EHLW 062325Z AUTO 32008KT 300V360 9999 SCT052 BKN063 BKN069 05/02 Q1016 BLU

6 grudnia 2022

Czas Kod Pogoda Temp. Widoczność Sufit Wiatr METAR/SPECI
23:55
V
5 °C 10 km+ 4.000 ft 320° 320° 10 kt METAR EHLW 062255Z AUTO 32010KT 290V350 9999 FEW033 BKN040 BKN045 05/03 Q1016 REDZ BLU
23:25
M
3 °C 10 km+ 2.800 ft 290° 290° 6 kt METAR EHLW 062225Z AUTO 29006KT 9999 SCT025 BKN028 03/02 Q1016 BLU
22:55
M
4 °C 10 km+ 2.800 ft 310° 310° 8 kt METAR EHLW 062155Z AUTO 31008KT 290V350 9999 BKN028 BKN037 BKN042 04/02 Q1016 BLU
22:25
V
4 °C 10 km+ - 300° 300° 5 kt METAR EHLW 062125Z AUTO 30005KT 260V350 9999 FEW030 04/02 Q1016 BLU
21:55
V
5 °C 10 km+ 6.100 ft 320° 320° 8 kt METAR EHLW 062055Z AUTO 32008KT 290V350 9999 FEW056 BKN061 OVC067 05/03 Q1016 BLU
21:35
V
5 °C 10 km+ - 310° 310° 8 kt METAR EHLW 062035Z AUTO 31008KT 280V340 9999 FEW015CB SCT042 05/03 Q1016 BLU
21:29
V
5 °C 10 km+ 3.200 ft 310° 310° 9 kt METAR EHLW 062029Z AUTO 31009KT 280V340 9999 -DZRA FEW015CB BKN032 BKN039 05/04 Q1016 BLU
21:25
V
5 °C 10 km+ 3.200 ft 310° 310° 8 kt METAR EHLW 062025Z AUTO 31008KT 280V340 9999 -RA FEW015CB SCT020 BKN032 05/04 Q1016 WHT
21:13
M
4 °C 10 km+ 2.700 ft 300° 300° 5 kt METAR EHLW 062013Z AUTO 30005KT 260V340 9999 FEW015CB SCT024 BKN027 04/03 Q1016 WHT
21:05
V
4 °C 10 km+ 5.600 ft 280° 280° 3 kt METAR EHLW 062005Z AUTO 28003KT 9999 FEW015CB SCT040 OVC056 04/04 Q1016 BLU
20:55
V
5 °C 10 km+ 3.600 ft 300° 300° 4 kt METAR EHLW 061955Z AUTO 30004KT 280V340 9999 FEW015CB BKN036 BKN042 05/03 Q1016 RERA BLU
20:43
V
5 °C 10 km+ 3.000 ft 340° 340° 7 kt METAR EHLW 061943Z AUTO 34007KT 310V010 9999 -SHRA FEW015CB BKN030 BKN034 05/04 Q1016 BLU
20:33
V
5 °C 10 km+ 3.600 ft 310° 310° 9 - 22 kt METAR EHLW 061933Z AUTO 31009G22KT 270V360 9999 -UP FEW015CB SCT024 BKN036 05/03 Q1016 WHT
20:25
V
4 °C 10 km+ - 310° 310° 5 kt METAR EHLW 061925Z AUTO 31005KT 9999 FEW015CB SCT050 04/03 Q1016 BLU
19:58
V
5 °C 10 km+ 3.500 ft 290° 290° 4 kt METAR EHLW 061858Z AUTO 29004KT 9999 -RA FEW015CB SCT030 BKN035 05/04 Q1016 BLU
19:55
M
5 °C 10 km+ 2.600 ft 280° 280° 4 kt METAR EHLW 061855Z AUTO 28004KT 260V320 9999 -RADZ FEW015CB SCT022 BKN026 05/04 Q1016 WHT
19:51
M
5 °C 10 km+ 2.400 ft 280° 280° 5 kt SPECI EHLW 061851Z AUTO 28005KT 260V320 9999 -RA FEW015CB BKN024 BKN042 05/04 Q1016 WHT
19:42
V
5 °C 10 km+ 6.700 ft 300° 300° 4 kt METAR EHLW 061842Z AUTO 30004KT 9999 FEW015CB BKN067 OVC075 05/04 Q1016 BLU
19:29
M
5 °C 10 km+ 2.600 ft 320° 320° 7 kt METAR EHLW 061829Z AUTO 32007KT 270V330 9999 -RA FEW015CB BKN026 OVC030 05/04 Q1016 BLU
19:25
M
4 °C 10 km+ 2.300 ft 320° 320° 8 kt METAR EHLW 061825Z AUTO 32008KT 270V340 9999 -RA FEW015CB BKN023 OVC027 04/04 Q1016 WHT
19:19
M
4 °C 7 km 1.900 ft 310° 310° 6 kt METAR EHLW 061819Z AUTO 31006KT 260V340 7000 -SHRA FEW015CB BKN019 OVC026 04/03 Q1016 WHT
19:06
I
2 °C 3,8 km 2.400 ft 290° 290° 5 kt METAR EHLW 061806Z AUTO 29005KT 3800 BR FEW015CB SCT020/// OVC024/// 02/02 Q1016 GRN
18:59
L
2 °C 900 m 2.400 ft 300° 300° 5 kt SPECI EHLW 061759Z AUTO 30005KT 0900 FG FEW000 FEW015CB BKN024 OVC034 02/02 Q1016 AMB
18:55
L
2 °C 500 m - 300° 300° 4 kt METAR EHLW 061755Z AUTO 30004KT 0500 FG OVC000/// 02/02 Q1016 RED
18:45
L
2 °C 500 m 4.100 ft 290° 290° 4 kt METAR EHLW 061745Z AUTO 29004KT 0500 FG BKN000 BKN041 BKN069 02/02 Q1016 RED
18:25
L
2 °C 500 m 14.000 ft 300° 300° 2 kt METAR EHLW 061725Z AUTO 30002KT 0500 FG OVC140 02/02 Q1016 RED
18:09
L
3 °C 550 m 16.000 ft 300° 300° 3 kt METAR EHLW 061709Z AUTO 30003KT 0550 FG FEW042 SCT048 BKN160 03/03 Q1016 RED
18:05
I
4 °C 2,6 km 18.000 ft 300° 300° 2 kt METAR EHLW 061705Z AUTO 30002KT 2600 BR FEW011 SCT043 BKN180 04/04 Q1016 YLO
17:55
I
3 °C 2,5 km 1.400 ft 310° 310° 3 kt METAR EHLW 061655Z AUTO 31003KT 2500 BR FEW007 SCT011 BKN014 03/03 Q1016 YLO
17:42
I
4 °C 2,6 km 2.100 ft 150° 150° 1 kt METAR EHLW 061642Z AUTO 15001KT 2600 BR FEW014 BKN021 OVC026 04/03 Q1016 YLO
17:35
M
3 °C 5 km 2.200 ft Var 000° 0 kt METAR EHLW 061635Z AUTO 00000KT 5000 BR SCT015 BKN022 BKN033 03/03 Q1016 WHT
17:28
I
4 °C 3,4 km 3.000 ft 150° 150° 1 kt METAR EHLW 061628Z AUTO 15001KT 3400 BR FEW020/// SCT023/// BKN030/// 04/04 Q1016 YLO
17:25
M
5 °C 6 km 2.900 ft 160° 160° 1 kt METAR EHLW 061625Z AUTO 16001KT 6000 BR SCT020 OVC029 05/04 Q1016 WHT
17:12
M
5 °C 10 km+ 2.700 ft 190° 190° 2 kt METAR EHLW 061612Z AUTO 19002KT 9999 SCT021 OVC027 05/04 Q1016 WHT
16:55
V
5 °C 10 km+ 18.000 ft 180° 180° 4 kt METAR EHLW 061555Z AUTO 18004KT 9999 FEW006 BKN180 BKN240 05/05 Q1016 BLU
16:38
V
6 °C 10 km+ 18.000 ft 190° 190° 5 kt METAR EHLW 061538Z AUTO 19005KT 150V220 9999 FEW005 OVC180 06/05 Q1016 BLU RMK TS INFO NOT AVBL
16:29
M
6 °C 10 km+ 2.200 ft 200° 200° 5 kt METAR EHLW 061529Z AUTO 20005KT 160V240 9999 SCT010 SCT017 BKN022 06/05 Q1016 GRN RMK TS INFO NOT AVBL
16:25
M
6 °C 10 km+ 2.500 ft 200° 200° 5 kt METAR EHLW 061525Z AUTO 20005KT 160V240 9999 -RA FEW011 FEW015CB SCT020 BKN025 06/06 Q1016 RERA WHT RMK TS INFO NOT AVBL
16:12
M
6 °C 7 km 2.200 ft 210° 210° 5 kt METAR EHLW 061512Z AUTO 21005KT 180V240 7000 SHRA FEW005 SCT018 BKN022 06/06 Q1016 WHT RMK TS INFO NOT AVBL
16:06
M
6 °C 6 km 2.800 ft 220° 220° 7 kt METAR EHLW 061506Z AUTO 22007KT 6000 SHRA FEW024/// BKN028/// OVC031/// 06/06 Q1016 WHT
16:01
I
6 °C 2,5 km 2.700 ft 230° 230° 6 kt METAR EHLW 061501Z AUTO 23006KT 2500 RA FEW013 SCT023 BKN027 06/06 Q1016 YLO
15:55
I
6 °C 3,8 km 2.400 ft 230° 230° 4 kt METAR EHLW 061455Z AUTO 23004KT 3800 SHRA +DZ FEW013 SCT020 OVC024 06/06 Q1016 GRN
15:41
M
6 °C 5 km 2.300 ft 230° 230° 6 kt METAR EHLW 061441Z AUTO 23006KT 5000 -RA FEW016 BKN023 BKN027 06/06 Q1017 WHT
15:35
M
6 °C 10 km+ 2.400 ft 230° 230° 6 kt METAR EHLW 061435Z AUTO 23006KT 9999 FEW016 BKN024 BKN028 06/05 Q1017 WHT
15:29
V
6 °C 10 km+ 3.000 ft 230° 230° 6 kt METAR EHLW 061429Z AUTO 23006KT 9999 FEW018 SCT025 BKN030 06/06 Q1017 BLU
15:25
M
6 °C 10 km+ 1.800 ft 230° 230° 6 kt METAR EHLW 061425Z AUTO 23006KT 9999 -RA BKN018 BKN024 BKN027 06/06 Q1017 WHT
15:03
M
6 °C 10 km+ 2.900 ft 230° 230° 6 kt METAR EHLW 061403Z AUTO 23006KT 200V260 9999 SCT022 BKN029 OVC033 06/06 Q1017 WHT
14:55
V
6 °C 10 km+ 3.200 ft 230° 230° 7 kt METAR EHLW 061355Z AUTO 23007KT 9999 -RA FEW024 SCT028 OVC032 06/06 Q1017 BLU TEMPO SCT008 BKN012 BECMG 31005KT
14:42
M
6 °C 10 km+ 2.700 ft 230° 230° 6 kt METAR EHLW 061342Z AUTO 23006KT 9999 -RA SCT024 BKN027 BKN034 06/05 Q1017 WHT TEMPO SCT008 BKN012 BECMG 31005KT
14:25
M
6 °C 10 km+ 2.900 ft 230° 230° 7 kt METAR EHLW 061325Z AUTO 23007KT 9999 BKN029 BKN032 OVC041 06/05 Q1017 BLU TEMPO SCT008 BKN012 BECMG 31005KT
14:17
V
7 °C 10 km+ 3.100 ft 230° 230° 6 kt METAR EHLW 061317Z AUTO 23006KT 9999 FEW013 OVC031 07/05 Q1017 BLU TEMPO SCT008 BKN012 BECMG 31005KT
14:16
M
7 °C 10 km+ 2.300 ft 230° 230° 6 kt METAR EHLW 061316Z AUTO 23006KT 9999 FEW008 SCT018 BKN023 07/05 Q1017 WHT TEMPO SCT008 BKN012 BECMG 31005KT
14:02
M
7 °C 10 km+ 1.800 ft 240° 240° 5 kt METAR EHLW 061302Z AUTO 24005KT 9999 -DZ FEW006 SCT015 BKN018 07/06 Q1017 WHT TEMPO SCT010 BECMG 31005KT
13:55
M
7 °C 6 km 2.200 ft 260° 260° 5 kt METAR EHLW 061255Z AUTO 26005KT 6000 -DZRA SCT013 BKN022 OVC026 07/06 Q1017 GRN TEMPO SCT010 BECMG 31005KT
13:40
M
7 °C 7 km 2.800 ft 260° 260° 5 kt METAR EHLW 061240Z AUTO 26005KT 220V280 7000 -RA SCT022 BKN028 OVC034 07/06 Q1017 WHT TEMPO SCT010 BECMG 31005KT
13:25
M
6 °C 10 km+ 2.400 ft 260° 260° 4 kt METAR EHLW 061225Z AUTO 26004KT 230V290 9999 FEW007 OVC024 06/05 Q1018 WHT TEMPO SCT010 BECMG 31005KT
13:11
M
6 °C 10 km+ 1.000 ft 260° 260° 4 kt METAR EHLW 061211Z AUTO 26004KT 220V280 9999 BKN010 BKN013 BKN027 06/05 Q1018 GRN TEMPO SCT010 BECMG 31005KT
13:07
V
6 °C 10 km+ 3.200 ft 260° 260° 4 kt METAR EHLW 061207Z AUTO 26004KT 9999 SCT012 OVC032 06/05 Q1018 GRN TEMPO SCT010 BECMG 31005KT
12:56
M
6 °C 6 km 2.400 ft 280° 280° 3 kt METAR EHLW 061156Z AUTO 28003KT 220V280 6000 -SHRA FEW011 SCT017 BKN024 06/05 Q1018 WHT TEMPO SCT010 BECMG 31005KT
12:55
M
6 °C 7 km 1.200 ft 290° 290° 4 kt METAR EHLW 061155Z AUTO 29004KT 220V300 7000 -SHRA +DZ FEW007 BKN012 BKN017 06/05 Q1018 GRN TEMPO SCT010 BECMG 31005KT
12:43
M
7 °C 7 km 1.700 ft 270° 270° 5 kt METAR EHLW 061143Z AUTO 27005KT 230V290 7000 +DZ OVC017 07/05 Q1018 WHT TEMPO SCT010 BECMG 31005KT
12:25
M
7 °C 10 km+ 2.500 ft 250° 250° 7 kt METAR EHLW 061125Z AUTO 25007KT 210V270 9999 SCT020 BKN025 OVC028 07/05 Q1018 WHT TEMPO VRB02KT SCT010 BECMG 31005KT
12:16
M
7 °C 10 km+ 2.800 ft 250° 250° 7 kt METAR EHLW 061116Z AUTO 25007KT 9999 FEW021 SCT025 OVC028 07/05 Q1018 BLU TEMPO VRB02KT SCT018
11:55
M
6 °C 10 km+ 2.400 ft 250° 250° 6 kt METAR EHLW 061055Z AUTO 25006KT 9999 OVC024 06/05 Q1018 WHT TEMPO VRB02KT SCT018
11:38
M
6 °C 10 km+ 2.700 ft 250° 250° 6 kt METAR EHLW 061038Z AUTO 25006KT 200V260 9999 SCT018 BKN027 BKN065 06/04 Q1018 WHT TEMPO VRB02KT SCT018
11:25
V
5 °C 10 km+ - 240° 240° 5 kt METAR EHLW 061025Z AUTO 24005KT 9999 FEW020 05/04 Q1018 BLU TEMPO VRB02KT
10:55
M
5 °C 10 km+ 2.300 ft 220° 220° 2 kt METAR EHLW 060955Z AUTO 22002KT 9999 BKN023 BKN026 05/03 Q1019 WHT TEMPO VRB02KT

My i strony trzecie śledzimy Twoje zachowanie internetowe na naszej stronie za pomocą plików cookie. Jeśli kontynuujesz, zakładamy, że zgadzasz się z naszymi polityka plików cookie.